createdAt,value
2018-04-15T00:00:25.587Z,5.20
2018-04-15T00:02:53.037Z,5.77
2018-04-15T00:05:20.451Z,5.43
2018-04-15T00:07:47.910Z,5.30
2018-04-15T00:10:15.311Z,5.30
2018-04-15T00:12:43.495Z,5.23
2018-04-15T00:15:10.900Z,5.77
2018-04-15T00:17:38.310Z,5.10
2018-04-15T00:20:05.707Z,5.03
2018-04-15T00:22:33.115Z,5.10
2018-04-15T00:25:00.527Z,5.73
2018-04-15T00:27:27.943Z,5.50
2018-04-15T00:29:55.344Z,5.50
2018-04-15T00:32:22.734Z,6.00
2018-04-15T00:34:50.145Z,5.70
2018-04-15T00:37:18.312Z,5.77
2018-04-15T00:39:46.495Z,5.63
2018-04-15T00:42:13.908Z,6.10
2018-04-15T00:44:42.070Z,5.37
2018-04-15T00:47:09.470Z,6.00
2018-04-15T00:49:36.919Z,5.40
2018-04-15T00:52:04.457Z,6.17
2018-04-15T00:54:31.854Z,6.20
2018-04-15T00:56:59.260Z,6.20
2018-04-15T00:59:27.422Z,5.97
2018-04-15T01:01:55.599Z,7.60
2018-04-15T01:04:23.007Z,5.83
2018-04-15T01:06:50.414Z,6.07
2018-04-15T01:09:17.822Z,6.03
2018-04-15T01:11:45.218Z,6.17
2018-04-15T01:14:12.631Z,6.63
2018-04-15T01:16:40.054Z,6.53
2018-04-15T01:19:07.443Z,6.50
2018-04-15T01:21:34.862Z,7.60
2018-04-15T01:24:02.279Z,7.50
2018-04-15T01:26:29.685Z,7.03
2018-04-15T01:28:57.883Z,7.17
2018-04-15T01:31:25.288Z,8.10
2018-04-15T01:33:53.447Z,7.47
2018-04-15T01:36:21.626Z,7.47
2018-04-15T01:38:49.031Z,7.43
2018-04-15T01:41:16.446Z,7.53
2018-04-15T01:43:43.855Z,7.10
2018-04-15T01:46:12.040Z,7.37
2018-04-15T01:48:39.450Z,7.40
2018-04-15T01:51:06.874Z,6.73
2018-04-15T01:53:35.078Z,7.70
2018-04-15T01:56:02.486Z,7.77
2018-04-15T01:58:29.911Z,6.63
2018-04-15T02:00:57.323Z,6.97
2018-04-15T02:03:24.722Z,7.60
2018-04-15T02:05:52.136Z,7.23
2018-04-15T02:08:19.558Z,7.00
2018-04-15T02:10:46.951Z,8.73
2018-04-15T02:13:14.349Z,6.90
2018-04-15T02:15:41.771Z,8.17
2018-04-15T02:18:09.185Z,7.23
2018-04-15T02:20:36.598Z,7.40
2018-04-15T02:23:04.023Z,7.07
2018-04-15T02:25:32.191Z,6.97
2018-04-15T02:28:00.355Z,6.73
2018-04-15T02:30:27.759Z,7.33
2018-04-15T02:32:55.163Z,7.50
2018-04-15T02:35:22.568Z,7.27
2018-04-15T02:37:50.746Z,7.60
2018-04-15T02:40:18.147Z,7.27
2018-04-15T02:42:45.556Z,7.33
2018-04-15T02:45:12.980Z,7.00
2018-04-15T02:47:40.426Z,7.37
2018-04-15T02:50:07.855Z,7.50
2018-04-15T02:52:35.273Z,7.13
2018-04-15T02:55:03.439Z,7.83
2018-04-15T02:57:31.614Z,7.27
2018-04-15T02:59:59.002Z,6.97
2018-04-15T03:02:26.421Z,7.23
2018-04-15T03:04:53.854Z,7.37
2018-04-15T03:07:21.271Z,7.00
2018-04-15T03:09:49.431Z,7.53
2018-04-15T03:12:16.839Z,6.93
2018-04-15T03:14:44.354Z,6.50
2018-04-15T03:17:11.742Z,7.43
2018-04-15T03:19:39.933Z,7.27
2018-04-15T03:22:07.315Z,7.60
2018-04-15T03:24:34.724Z,7.17
2018-04-15T03:27:02.127Z,6.83
2018-04-15T03:29:30.295Z,7.77
2018-04-15T03:31:57.736Z,7.10
2018-04-15T03:34:25.876Z,7.33
2018-04-15T03:36:54.048Z,7.10
2018-04-15T03:39:21.463Z,7.47
2018-04-15T03:41:48.887Z,7.37
2018-04-15T03:44:16.279Z,7.33
2018-04-15T03:46:43.686Z,7.40
2018-04-15T03:49:11.092Z,7.20
2018-04-15T03:51:38.666Z,7.60
2018-04-15T03:54:06.091Z,7.43
2018-04-15T03:56:33.502Z,7.30
2018-04-15T03:59:00.915Z,7.40
2018-04-15T04:01:29.115Z,7.57
2018-04-15T04:03:56.546Z,8.03
2018-04-15T04:06:23.959Z,8.47
2018-04-15T04:08:52.143Z,7.67
2018-04-15T04:11:19.554Z,7.70
2018-04-15T04:13:47.735Z,7.90
2018-04-15T04:16:15.145Z,8.33
2018-04-15T04:22:11.266Z,7.83
2018-04-15T04:24:51.239Z,7.73
2018-04-15T04:27:18.646Z,8.30
2018-04-15T04:29:46.831Z,8.60
2018-04-15T04:32:14.241Z,7.97
2018-04-15T04:34:41.623Z,7.90
2018-04-15T04:37:09.060Z,8.10
2018-04-15T04:39:36.515Z,7.57
2018-04-15T04:42:03.931Z,8.80
2018-04-15T04:44:31.322Z,8.00
2018-04-15T04:46:58.736Z,7.53
2018-04-15T04:49:26.131Z,7.77
2018-04-15T04:51:54.302Z,8.30
2018-04-15T04:54:21.715Z,8.07
2018-04-15T04:56:49.135Z,9.00
2018-04-15T04:59:16.523Z,9.07
2018-04-15T05:01:43.930Z,8.53
2018-04-15T05:04:11.334Z,8.27
2018-04-15T05:06:38.760Z,8.33
2018-04-15T05:09:06.150Z,8.20
2018-04-15T05:11:33.557Z,8.27
2018-04-15T05:14:00.967Z,8.33
2018-04-15T05:16:28.386Z,8.20
2018-04-15T05:18:56.551Z,8.47
2018-04-15T05:21:24.714Z,8.57
2018-04-15T05:23:52.890Z,8.50
2018-04-15T05:26:20.291Z,7.90
2018-04-15T05:28:47.695Z,8.90
2018-04-15T05:31:15.099Z,8.13
2018-04-15T05:33:43.280Z,7.90
2018-04-15T05:36:10.668Z,8.90
2018-04-15T05:38:38.063Z,7.70
2018-04-15T05:41:05.475Z,8.73
2018-04-15T05:43:33.643Z,8.30
2018-04-15T05:46:01.055Z,9.40
2018-04-15T05:48:29.237Z,8.57
2018-04-15T05:50:57.418Z,9.27
2018-04-15T05:53:24.830Z,9.30
2018-04-15T05:55:53.007Z,7.97
2018-04-15T05:58:20.470Z,8.43
2018-04-15T06:00:47.867Z,8.50
2018-04-15T06:03:16.043Z,8.17
2018-04-15T06:05:43.446Z,8.20
2018-04-15T06:08:10.846Z,8.57
2018-04-15T06:10:38.304Z,8.80
2018-04-15T06:13:05.706Z,8.50
2018-04-15T06:15:33.115Z,8.27
2018-04-15T06:18:00.523Z,8.17
2018-04-15T06:20:27.926Z,7.77
2018-04-15T06:22:55.343Z,7.70
2018-04-15T06:25:22.881Z,8.23
2018-04-15T06:27:50.351Z,7.87
2018-04-15T06:30:18.510Z,7.87
2018-04-15T06:32:46.671Z,7.67
2018-04-15T06:35:14.151Z,7.47
2018-04-15T06:37:41.547Z,7.40
2018-04-15T06:40:09.719Z,6.73
2018-04-15T06:42:37.123Z,5.43
2018-04-15T06:45:04.543Z,5.53
2018-04-15T06:47:31.951Z,9.47
2018-04-15T06:49:59.359Z,7.33
2018-04-15T06:52:27.540Z,5.20
2018-04-15T06:54:54.943Z,5.17
2018-04-15T06:57:22.350Z,4.83
2018-04-15T06:59:49.767Z,3.40
2018-04-15T07:02:17.172Z,3.80
2018-04-15T07:04:44.571Z,3.77
2018-04-15T07:07:11.986Z,4.27
2018-04-15T07:09:40.178Z,3.90
2018-04-15T07:12:07.606Z,4.10
2018-04-15T07:14:34.999Z,4.10
2018-04-15T07:17:02.406Z,5.37
2018-04-15T07:19:29.806Z,5.20
2018-04-15T07:21:57.206Z,5.00
2018-04-15T07:24:24.628Z,5.10
2018-04-15T07:26:52.918Z,4.77
2018-04-15T07:29:20.331Z,4.60
2018-04-15T07:31:47.739Z,5.33
2018-04-15T07:34:15.161Z,5.10
2018-04-15T07:36:42.558Z,6.03
2018-04-15T07:39:09.966Z,5.50
2018-04-15T07:41:37.367Z,5.77
2018-04-15T07:44:04.766Z,5.57
2018-04-15T07:46:32.172Z,6.03
2018-04-15T07:48:59.574Z,6.57
2018-04-15T07:51:26.979Z,6.13
2018-04-15T07:53:54.386Z,6.37
2018-04-15T07:56:22.558Z,5.90
2018-04-15T07:58:50.744Z,6.33
2018-04-15T08:01:18.195Z,6.57
2018-04-15T08:03:45.598Z,6.20
2018-04-15T08:06:13.023Z,6.07
2018-04-15T08:08:41.202Z,6.40
2018-04-15T08:11:08.603Z,6.50
2018-04-15T08:13:36.011Z,6.50
2018-04-15T08:16:03.419Z,6.60
2018-04-15T08:18:31.620Z,5.90
2018-04-15T08:20:59.024Z,6.03
2018-04-15T08:23:26.426Z,6.17
2018-04-15T08:25:53.827Z,5.87
2018-04-15T08:28:21.230Z,5.50
2018-04-15T08:30:49.402Z,6.10
2018-04-15T08:33:17.578Z,5.87
2018-04-15T08:35:44.979Z,5.80
2018-04-15T08:38:12.386Z,6.53
2018-04-15T08:40:39.792Z,6.57
2018-04-15T08:43:07.195Z,5.90
2018-04-15T08:45:34.606Z,6.67
2018-04-15T08:48:02.015Z,6.20
2018-04-15T08:50:29.411Z,7.00
2018-04-15T08:52:56.815Z,6.70
2018-04-15T08:55:24.223Z,6.30
2018-04-15T08:57:52.422Z,5.50
2018-04-15T09:00:19.826Z,5.73
2018-04-15T09:02:47.999Z,6.00
2018-04-15T09:05:15.416Z,5.93
2018-04-15T09:07:43.582Z,5.63
2018-04-15T09:10:11.764Z,5.83
2018-04-15T09:12:39.171Z,6.20
2018-04-15T09:15:07.330Z,6.00
2018-04-15T09:17:35.511Z,6.40
2018-04-15T09:20:02.925Z,6.37
2018-04-15T09:22:30.414Z,6.13
2018-04-15T09:24:57.814Z,6.70
2018-04-15T09:27:25.978Z,7.23
2018-04-15T09:29:54.147Z,6.90
2018-04-15T09:32:21.679Z,6.57
2018-04-15T09:34:49.847Z,6.97
2018-04-15T09:37:17.250Z,7.23
2018-04-15T09:39:44.663Z,7.20
2018-04-15T09:42:12.076Z,6.97
2018-04-15T09:44:39.483Z,7.30
2018-04-15T09:47:06.899Z,8.27
2018-04-15T09:49:34.322Z,7.43
2018-04-15T09:52:01.739Z,7.13
2018-04-15T09:54:29.139Z,7.40
2018-04-15T09:56:57.311Z,7.27
2018-04-15T09:59:25.484Z,6.97
2018-04-15T10:01:52.894Z,7.47
2018-04-15T10:04:20.311Z,7.40
2018-04-15T10:06:47.715Z,8.13
2018-04-15T10:09:15.122Z,7.10
2018-04-15T10:11:42.523Z,7.73
2018-04-15T10:14:09.927Z,7.47
2018-04-15T10:16:38.104Z,8.10
2018-04-15T10:19:05.499Z,7.57
2018-04-15T10:21:33.007Z,7.70
2018-04-15T10:24:00.428Z,9.07
2018-04-15T10:26:27.817Z,8.23
2018-04-15T10:28:55.217Z,7.60
2018-04-15T10:31:23.399Z,7.67
2018-04-15T10:33:50.800Z,8.10
2018-04-15T10:36:18.971Z,8.10
2018-04-15T10:38:46.411Z,8.63
2018-04-15T10:41:13.762Z,8.13
2018-04-15T10:43:41.171Z,7.70
2018-04-15T10:46:09.338Z,7.83
2018-04-15T10:48:37.494Z,7.97
2018-04-15T10:51:05.676Z,7.30
2018-04-15T10:53:33.083Z,8.17
2018-04-15T10:56:01.269Z,8.10
2018-04-15T10:58:28.666Z,8.30
2018-04-15T11:00:56.063Z,7.77
2018-04-15T11:03:23.468Z,8.23
2018-04-15T11:05:50.874Z,7.57
2018-04-15T11:08:18.283Z,7.80
2018-04-15T11:10:45.687Z,17.10
2018-04-15T11:13:13.867Z,25.50
2018-04-15T11:15:41.291Z,8.40
2018-04-15T11:18:08.686Z,8.67
2018-04-15T11:20:36.106Z,22.60
2018-04-15T11:23:03.520Z,14.03
2018-04-15T11:25:30.930Z,21.20
2018-04-15T11:27:58.339Z,10.43
2018-04-15T11:30:25.775Z,8.73
2018-04-15T11:32:53.185Z,18.73
2018-04-15T11:35:20.600Z,9.27
2018-04-15T11:37:48.010Z,18.30
2018-04-15T11:40:15.410Z,11.20
2018-04-15T11:42:42.826Z,15.00
2018-04-15T11:45:10.233Z,8.10
2018-04-15T11:47:37.634Z,10.27
2018-04-15T11:50:05.069Z,7.43
2018-04-15T11:52:32.457Z,9.30
2018-04-15T11:54:59.854Z,12.47
2018-04-15T11:57:28.020Z,7.97
2018-04-15T11:59:55.442Z,7.60
2018-04-15T12:02:23.638Z,8.13
2018-04-15T12:04:51.039Z,7.77
2018-04-15T12:07:19.219Z,8.07
2018-04-15T12:09:46.618Z,7.47
2018-04-15T12:12:14.039Z,6.90
2018-04-15T12:14:41.475Z,7.40
2018-04-15T12:17:08.892Z,6.85
2018-04-15T12:19:36.291Z,7.07
2018-04-15T12:22:03.698Z,6.97
2018-04-15T12:24:31.114Z,7.68
2018-04-15T12:26:58.519Z,7.57
2018-04-15T12:29:26.015Z,7.70
2018-04-15T12:31:53.426Z,7.50
2018-04-15T12:34:21.594Z,6.57
2018-04-15T12:36:49.006Z,7.60
2018-04-15T12:39:17.175Z,6.97
2018-04-15T12:41:45.364Z,6.80
2018-04-15T12:44:12.761Z,7.13
2018-04-15T12:46:40.191Z,7.10
2018-04-15T12:49:07.594Z,6.80
2018-04-15T12:51:35.025Z,6.77
2018-04-15T12:54:03.183Z,6.67
2018-04-15T12:56:30.631Z,7.53
2018-04-15T12:58:58.087Z,7.37
2018-04-15T13:01:25.544Z,6.50
2018-04-15T13:03:52.954Z,7.30
2018-04-15T13:06:20.367Z,7.00
2018-04-15T13:08:48.541Z,6.53
2018-04-15T13:11:15.951Z,6.50
2018-04-15T13:13:43.347Z,6.68
2018-04-15T13:16:10.795Z,6.37
2018-04-15T13:18:38.222Z,6.40
2018-04-15T13:21:05.654Z,6.12
2018-04-15T13:23:33.067Z,5.93
2018-04-15T13:26:01.234Z,6.43
2018-04-15T13:28:29.627Z,6.20
2018-04-15T13:30:57.066Z,6.28
2018-04-15T13:33:24.475Z,5.82
2018-04-15T13:35:52.670Z,6.00
2018-04-15T13:38:20.842Z,6.47
2018-04-15T13:40:48.264Z,6.15
2018-04-15T13:43:15.671Z,5.87
2018-04-15T13:45:43.850Z,5.30
2018-04-15T13:48:11.254Z,5.55
2018-04-15T13:50:38.771Z,5.30
2018-04-15T13:53:06.192Z,5.10
2018-04-15T13:55:33.593Z,5.47
2018-04-15T13:58:00.991Z,5.47
2018-04-15T14:00:28.392Z,5.35
2018-04-15T14:02:55.799Z,5.07
2018-04-15T14:05:23.231Z,5.35
2018-04-15T14:07:50.645Z,4.90
2018-04-15T14:10:18.051Z,5.28
2018-04-15T14:12:46.232Z,4.78
2018-04-15T14:15:13.634Z,4.75
2018-04-15T14:17:41.048Z,4.72
2018-04-15T14:20:08.455Z,4.70
2018-04-15T14:22:35.854Z,4.62
2018-04-15T14:25:03.254Z,4.72
2018-04-15T14:27:30.675Z,5.35
2018-04-15T14:29:58.091Z,4.47
2018-04-15T14:32:26.362Z,4.78
2018-04-15T14:34:54.546Z,4.25
2018-04-15T14:37:21.950Z,4.32
2018-04-15T14:39:50.163Z,5.05
2018-04-15T14:42:17.579Z,5.03
2018-04-15T14:44:44.983Z,6.40
2018-04-15T14:47:12.382Z,4.65
2018-04-15T14:49:39.835Z,5.07
2018-04-15T14:52:07.243Z,5.12
2018-04-15T14:54:34.660Z,4.45
2018-04-15T14:57:02.838Z,4.37
2018-04-15T14:59:30.242Z,4.40
2018-04-15T15:01:58.455Z,4.53
2018-04-15T15:04:25.871Z,4.40
2018-04-15T15:06:53.343Z,4.53
2018-04-15T15:09:20.751Z,4.03
2018-04-15T15:11:48.907Z,4.05
2018-04-15T15:14:17.118Z,3.78
2018-04-15T15:16:44.534Z,4.60
2018-04-15T15:19:11.963Z,4.10
2018-04-15T15:21:40.169Z,3.95
2018-04-15T15:24:07.627Z,4.10
2018-04-15T15:26:35.043Z,4.97
2018-04-15T15:29:02.455Z,5.43
2018-04-15T15:31:29.854Z,4.80
2018-04-15T15:33:57.359Z,4.63
2018-04-15T15:36:24.755Z,5.20
2018-04-15T15:38:52.154Z,4.93
2018-04-15T15:41:19.555Z,4.83
2018-04-15T15:43:47.718Z,4.70
2018-04-15T15:46:15.898Z,4.50
2018-04-15T15:48:43.334Z,4.53
2018-04-15T15:51:10.712Z,4.57
2018-04-15T15:53:38.128Z,4.90
2018-04-15T15:56:05.522Z,4.73
2018-04-15T15:58:32.941Z,4.57
2018-04-15T16:01:00.346Z,4.43
2018-04-15T16:03:27.744Z,4.33
2018-04-15T16:05:55.151Z,4.50
2018-04-15T16:08:23.317Z,3.50
2018-04-15T16:10:50.711Z,4.30
2018-04-15T16:13:18.193Z,3.60
2018-04-15T16:15:45.590Z,4.47
2018-04-15T16:18:13.763Z,4.22
2018-04-15T16:20:41.155Z,4.43
2018-04-15T16:23:08.571Z,4.50
2018-04-15T16:25:35.998Z,24.10
2018-04-15T16:28:03.411Z,14.63
2018-04-15T16:30:31.603Z,4.50
2018-04-15T16:32:59.006Z,4.20
2018-04-15T16:35:27.186Z,5.23
2018-04-15T16:37:54.592Z,4.60
2018-04-15T16:40:21.992Z,4.07
2018-04-15T16:42:49.398Z,4.20
2018-04-15T16:45:17.582Z,15.47
2018-04-15T16:47:45.026Z,3.77
2018-04-15T16:50:13.179Z,3.67
2018-04-15T16:52:40.583Z,3.43
2018-04-15T16:55:08.765Z,7.90
2018-04-15T16:57:36.190Z,3.80
2018-04-15T17:00:03.620Z,4.87
2018-04-15T17:02:31.107Z,18.17
2018-04-15T17:04:59.278Z,4.80
2018-04-15T17:07:26.674Z,3.60
2018-04-15T17:09:54.844Z,4.10
2018-04-15T17:12:22.262Z,4.23
2018-04-15T17:14:50.430Z,4.10
2018-04-15T17:17:18.594Z,3.47
2018-04-15T17:19:46.772Z,3.40
2018-04-15T17:22:14.193Z,3.50
2018-04-15T17:24:41.672Z,4.23
2018-04-15T17:27:09.157Z,5.20
2018-04-15T17:29:36.529Z,4.83
2018-04-15T17:32:03.935Z,4.90
2018-04-15T17:34:31.335Z,4.63
2018-04-15T17:36:58.776Z,4.60
2018-04-15T17:39:26.166Z,5.37
2018-04-15T17:41:53.569Z,5.13
2018-04-15T17:44:21.753Z,5.20
2018-04-15T17:46:49.916Z,4.30
2018-04-15T17:49:17.306Z,4.83
2018-04-15T17:51:44.711Z,4.50
2018-04-15T17:54:12.886Z,5.10
2018-04-15T17:56:40.327Z,5.27
2018-04-15T17:59:08.479Z,4.67
2018-04-15T18:01:36.654Z,4.47
2018-04-15T18:04:04.063Z,4.73
2018-04-15T18:06:31.475Z,4.57
2018-04-15T18:08:59.671Z,5.00
2018-04-15T18:11:27.082Z,4.90
2018-04-15T18:13:54.527Z,4.87
2018-04-15T18:16:21.890Z,5.27
2018-04-15T18:18:49.287Z,5.10
2018-04-15T18:21:16.691Z,4.77
2018-04-15T18:23:44.091Z,5.27
2018-04-15T18:26:11.501Z,4.83
2018-04-15T18:28:38.891Z,4.67
2018-04-15T18:31:06.313Z,5.00
2018-04-15T18:33:33.694Z,4.50
2018-04-15T18:36:01.881Z,5.10
2018-04-15T18:38:29.279Z,4.70
2018-04-15T18:40:57.458Z,4.70
2018-04-15T18:43:24.854Z,4.73
2018-04-15T18:45:52.265Z,4.90
2018-04-15T18:48:19.671Z,4.90
2018-04-15T18:50:47.853Z,5.10
2018-04-15T18:53:15.234Z,4.60
2018-04-15T18:55:42.634Z,4.90
2018-04-15T18:58:10.034Z,4.93
2018-04-15T19:00:37.450Z,4.70
2018-04-15T19:03:04.846Z,4.90
2018-04-15T19:05:32.246Z,5.23
2018-04-15T19:07:59.647Z,5.00
2018-04-15T19:10:27.059Z,4.90
2018-04-15T19:12:55.226Z,4.30
2018-04-15T19:15:22.645Z,4.77
2018-04-15T19:17:50.056Z,4.70
2018-04-15T19:20:17.446Z,4.47
2018-04-15T19:22:44.845Z,4.50
2018-04-15T19:25:12.239Z,4.73
2018-04-15T19:27:39.648Z,4.80
2018-04-15T19:30:07.049Z,5.20
2018-04-15T19:32:34.442Z,5.57
2018-04-15T19:35:02.614Z,5.50
2018-04-15T19:37:30.011Z,5.27
2018-04-15T19:39:57.410Z,5.30
2018-04-15T19:42:24.810Z,5.83
2018-04-15T19:44:52.211Z,5.50
2018-04-15T19:47:19.610Z,6.23
2018-04-15T19:49:47.022Z,5.80
2018-04-15T19:52:14.420Z,6.50
2018-04-15T19:54:41.835Z,5.93
2018-04-15T19:57:09.222Z,6.70
2018-04-15T19:59:36.638Z,5.97
2018-04-15T20:02:04.054Z,5.87
2018-04-15T20:04:31.451Z,5.53
2018-04-15T20:06:58.863Z,6.03
2018-04-15T20:09:26.321Z,6.40
2018-04-15T20:11:53.725Z,5.93
2018-04-15T20:14:21.887Z,5.90
2018-04-15T20:16:49.355Z,5.27
2018-04-15T20:19:16.759Z,5.10
2018-04-15T20:21:44.926Z,5.67
2018-04-15T20:24:12.326Z,5.70
2018-04-15T20:26:40.499Z,5.73
2018-04-15T20:29:08.669Z,5.70
2018-04-15T20:31:36.854Z,5.37
2018-04-15T20:34:04.251Z,5.83
2018-04-15T20:36:31.656Z,5.40
2018-04-15T20:38:59.051Z,6.07
2018-04-15T20:41:27.250Z,5.40
2018-04-15T20:43:54.671Z,5.63
2018-04-15T20:46:22.091Z,5.03
2018-04-15T20:48:49.487Z,5.37
2018-04-15T20:51:16.917Z,5.27
2018-04-15T20:53:44.299Z,5.17
2018-04-15T20:56:11.716Z,5.30
2018-04-15T20:58:39.127Z,5.57
2018-04-15T21:01:06.581Z,5.03
2018-04-15T21:03:34.004Z,5.80
2018-04-15T21:06:01.403Z,5.07
2018-04-15T21:08:28.826Z,4.87
2018-04-15T21:10:56.235Z,5.37
2018-04-15T21:13:23.639Z,5.27
2018-04-15T21:15:51.811Z,5.07
2018-04-15T21:18:19.275Z,5.10
2018-04-15T21:20:46.678Z,5.13
2018-04-15T21:23:14.879Z,5.00
2018-04-15T21:25:42.282Z,5.13
2018-04-15T21:28:10.450Z,4.80
2018-04-15T21:30:37.847Z,5.13
2018-04-15T21:33:05.254Z,5.10
2018-04-15T21:35:32.662Z,5.00
2018-04-15T21:38:00.835Z,5.17
2018-04-15T21:40:28.248Z,4.67
2018-04-15T21:42:55.643Z,4.83
2018-04-15T21:45:23.051Z,4.00
2018-04-15T21:47:51.240Z,4.10
2018-04-15T21:50:18.626Z,4.20
2018-04-15T21:52:46.031Z,4.93
2018-04-15T21:55:13.430Z,4.17
2018-04-15T21:57:41.610Z,3.83
2018-04-15T22:00:09.015Z,4.20
2018-04-15T22:02:36.423Z,4.20
2018-04-15T22:05:03.823Z,4.13
2018-04-15T22:07:31.299Z,4.20
2018-04-15T22:09:58.726Z,4.53
2018-04-15T22:12:26.132Z,4.47
2018-04-15T22:14:54.306Z,4.63
2018-04-15T22:17:21.711Z,4.50
2018-04-15T22:19:49.115Z,4.60
2018-04-15T22:22:16.523Z,3.97
2018-04-15T22:24:43.940Z,4.23
2018-04-15T22:27:11.331Z,4.17
2018-04-15T22:29:38.760Z,4.20
2018-04-15T22:32:06.156Z,4.53
2018-04-15T22:34:33.565Z,4.10
2018-04-15T22:37:00.979Z,3.93
2018-04-15T22:39:29.151Z,4.43
2018-04-15T22:41:56.551Z,4.20
2018-04-15T22:44:24.736Z,4.37
2018-04-15T22:46:52.126Z,3.80
2018-04-15T22:49:22.382Z,3.83
2018-04-15T22:51:50.539Z,4.33
2018-04-15T22:54:17.952Z,3.87
2018-04-15T22:56:45.342Z,3.97
2018-04-15T22:59:15.353Z,4.07
2018-04-15T23:01:42.750Z,3.80
2018-04-15T23:04:10.945Z,3.93
2018-04-15T23:06:38.375Z,4.30
2018-04-15T23:09:05.775Z,4.30
2018-04-15T23:11:33.183Z,4.13
2018-04-15T23:14:00.596Z,4.17
2018-04-15T23:16:27.998Z,3.93
2018-04-15T23:18:55.407Z,3.80
2018-04-15T23:21:22.832Z,3.73
2018-04-15T23:23:50.223Z,3.50
2018-04-15T23:26:17.646Z,3.40
2018-04-15T23:28:45.056Z,3.90
2018-04-15T23:31:12.451Z,3.87
2018-04-15T23:33:40.639Z,4.23
2018-04-15T23:36:08.074Z,3.77
2018-04-15T23:38:35.566Z,3.43
2018-04-15T23:41:03.499Z,3.47
2018-04-15T23:43:30.891Z,4.00
2018-04-15T23:45:59.094Z,3.80
2018-04-15T23:48:26.606Z,3.90
2018-04-15T23:50:54.790Z,3.90
2018-04-15T23:53:22.200Z,3.67
2018-04-15T23:55:50.419Z,3.47
2018-04-15T23:58:17.795Z,3.53
